sensor_id;sensor_type;location;lat;lon;timestamp;P1;durP1;ratioP1;P2;durP2;ratioP2
76865;SDS011;66647;52.124;5.416;2023-03-29T00:02:02;3.63;;;0.47;;
76865;SDS011;66647;52.124;5.416;2023-03-29T00:04:29;3.50;;;0.43;;
76865;SDS011;66647;52.124;5.416;2023-03-29T00:06:56;3.35;;;0.40;;
76865;SDS011;66647;52.124;5.416;2023-03-29T00:09:29;2.60;;;1.23;;
76865;SDS011;66647;52.124;5.416;2023-03-29T00:11:59;3.28;;;0.30;;
76865;SDS011;66647;52.124;5.416;2023-03-29T00:14:27;1.98;;;0.40;;
76865;SDS011;66647;52.124;5.416;2023-03-29T00:16:56;1.88;;;0.30;;
76865;SDS011;66647;52.124;5.416;2023-03-29T00:19:24;1.85;;;0.30;;
76865;SDS011;66647;52.124;5.416;2023-03-29T00:21:54;4.47;;;0.30;;
76865;SDS011;66647;52.124;5.416;2023-03-29T00:24:20;1.90;;;0.30;;
76865;SDS011;66647;52.124;5.416;2023-03-29T00:26:49;2.55;;;0.30;;
76865;SDS011;66647;52.124;5.416;2023-03-29T00:29:18;2.88;;;0.50;;
76865;SDS011;66647;52.124;5.416;2023-03-29T00:31:44;1.83;;;0.20;;
76865;SDS011;66647;52.124;5.416;2023-03-29T00:34:18;1.55;;;0.28;;
76865;SDS011;66647;52.124;5.416;2023-03-29T00:36:46;1.80;;;0.20;;
76865;SDS011;66647;52.124;5.416;2023-03-29T00:39:16;2.90;;;0.20;;
76865;SDS011;66647;52.124;5.416;2023-03-29T00:41:49;4.45;;;0.70;;
76865;SDS011;66647;52.124;5.416;2023-03-29T00:47:18;2.95;;;0.57;;
76865;SDS011;66647;52.124;5.416;2023-03-29T00:49:50;2.92;;;0.50;;
76865;SDS011;66647;52.124;5.416;2023-03-29T00:52:18;3.92;;;0.43;;
76865;SDS011;66647;52.124;5.416;2023-03-29T00:54:47;3.13;;;0.50;;
76865;SDS011;66647;52.124;5.416;2023-03-29T00:57:18;4.30;;;0.30;;
76865;SDS011;66647;52.124;5.416;2023-03-29T00:59:48;1.80;;;0.30;;
76865;SDS011;66647;52.124;5.416;2023-03-29T01:02:17;3.97;;;0.43;;
76865;SDS011;66647;52.124;5.416;2023-03-29T01:04:50;4.30;;;0.50;;
76865;SDS011;66647;52.124;5.416;2023-03-29T01:07:22;4.15;;;0.43;;
76865;SDS011;66647;52.124;5.416;2023-03-29T01:10:07;2.65;;;0.28;;
76865;SDS011;66647;52.124;5.416;2023-03-29T01:12:45;4.70;;;0.68;;
76865;SDS011;66647;52.124;5.416;2023-03-29T01:15:18;2.03;;;0.30;;
76865;SDS011;66647;52.124;5.416;2023-03-29T01:17:47;3.03;;;0.28;;
76865;SDS011;66647;52.124;5.416;2023-03-29T01:20:18;5.38;;;0.52;;
76865;SDS011;66647;52.124;5.416;2023-03-29T01:22:49;2.20;;;0.45;;
76865;SDS011;66647;52.124;5.416;2023-03-29T01:25:31;1.55;;;0.20;;
76865;SDS011;66647;52.124;5.416;2023-03-29T01:28:10;3.05;;;0.30;;
76865;SDS011;66647;52.124;5.416;2023-03-29T01:33:27;1.98;;;0.47;;
76865;SDS011;66647;52.124;5.416;2023-03-29T01:38:53;2.88;;;0.22;;
76865;SDS011;66647;52.124;5.416;2023-03-29T01:41:22;4.20;;;0.35;;
76865;SDS011;66647;52.124;5.416;2023-03-29T01:44:44;4.30;;;0.77;;
76865;SDS011;66647;52.124;5.416;2023-03-29T01:47:17;5.45;;;0.43;;
76865;SDS011;66647;52.124;5.416;2023-03-29T01:52:32;3.35;;;0.60;;
76865;SDS011;66647;52.124;5.416;2023-03-29T01:55:11;3.33;;;0.63;;
76865;SDS011;66647;52.124;5.416;2023-03-29T01:57:42;2.85;;;0.30;;
76865;SDS011;66647;52.124;5.416;2023-03-29T02:00:17;1.70;;;0.30;;
76865;SDS011;66647;52.124;5.416;2023-03-29T02:02:47;3.00;;;0.43;;
76865;SDS011;66647;52.124;5.416;2023-03-29T02:05:17;2.28;;;0.30;;
76865;SDS011;66647;52.124;5.416;2023-03-29T02:07:46;4.50;;;0.43;;
76865;SDS011;66647;52.124;5.416;2023-03-29T02:10:15;1.92;;;0.40;;
76865;SDS011;66647;52.124;5.416;2023-03-29T02:12:43;4.60;;;0.40;;
76865;SDS011;66647;52.124;5.416;2023-03-29T02:15:11;2.50;;;0.22;;
76865;SDS011;66647;52.124;5.416;2023-03-29T02:17:40;2.80;;;0.60;;
76865;SDS011;66647;52.124;5.416;2023-03-29T02:22:45;2.13;;;0.20;;
76865;SDS011;66647;52.124;5.416;2023-03-29T02:25:16;3.83;;;0.35;;
76865;SDS011;66647;52.124;5.416;2023-03-29T02:27:43;4.88;;;1.10;;
76865;SDS011;66647;52.124;5.416;2023-03-29T02:30:11;3.10;;;0.47;;
76865;SDS011;66647;52.124;5.416;2023-03-29T02:32:56;4.32;;;0.75;;
76865;SDS011;66647;52.124;5.416;2023-03-29T02:35:31;4.65;;;0.50;;
76865;SDS011;66647;52.124;5.416;2023-03-29T02:40:32;4.32;;;0.35;;
76865;SDS011;66647;52.124;5.416;2023-03-29T02:43:00;2.72;;;0.47;;
76865;SDS011;66647;52.124;5.416;2023-03-29T02:45:28;4.35;;;0.40;;
76865;SDS011;66647;52.124;5.416;2023-03-29T02:47:57;3.92;;;0.70;;
76865;SDS011;66647;52.124;5.416;2023-03-29T02:50:38;3.30;;;0.35;;
76865;SDS011;66647;52.124;5.416;2023-03-29T02:53:15;3.60;;;0.40;;
76865;SDS011;66647;52.124;5.416;2023-03-29T02:55:46;3.53;;;0.70;;
76865;SDS011;66647;52.124;5.416;2023-03-29T02:58:13;3.40;;;0.30;;
76865;SDS011;66647;52.124;5.416;2023-03-29T03:00:42;3.65;;;0.50;;
76865;SDS011;66647;52.124;5.416;2023-03-29T03:05:41;6.10;;;0.57;;
76865;SDS011;66647;52.124;5.416;2023-03-29T03:08:09;3.00;;;0.50;;
76865;SDS011;66647;52.124;5.416;2023-03-29T03:10:36;2.67;;;0.43;;
76865;SDS011;66647;52.124;5.416;2023-03-29T03:13:04;2.15;;;0.30;;
76865;SDS011;66647;52.124;5.416;2023-03-29T03:15:31;4.57;;;0.35;;
76865;SDS011;66647;52.124;5.416;2023-03-29T03:18:02;3.63;;;0.50;;
76865;SDS011;66647;52.124;5.416;2023-03-29T03:20:30;3.28;;;0.70;;
76865;SDS011;66647;52.124;5.416;2023-03-29T03:22:57;3.58;;;0.52;;
76865;SDS011;66647;52.124;5.416;2023-03-29T03:25:23;5.43;;;1.00;;
76865;SDS011;66647;52.124;5.416;2023-03-29T03:27:50;4.85;;;1.00;;
76865;SDS011;66647;52.124;5.416;2023-03-29T03:30:20;4.15;;;0.50;;
76865;SDS011;66647;52.124;5.416;2023-03-29T03:33:19;2.90;;;0.60;;
76865;SDS011;66647;52.124;5.416;2023-03-29T03:35:45;4.45;;;1.00;;
76865;SDS011;66647;52.124;5.416;2023-03-29T03:38:18;7.05;;;0.88;;
76865;SDS011;66647;52.124;5.416;2023-03-29T03:40:53;4.13;;;0.60;;
76865;SDS011;66647;52.124;5.416;2023-03-29T03:43:20;3.30;;;0.60;;
76865;SDS011;66647;52.124;5.416;2023-03-29T03:45:48;5.05;;;0.50;;
76865;SDS011;66647;52.124;5.416;2023-03-29T03:48:18;4.07;;;0.82;;
76865;SDS011;66647;52.124;5.416;2023-03-29T03:50:55;4.88;;;0.55;;
76865;SDS011;66647;52.124;5.416;2023-03-29T03:53:28;2.53;;;0.57;;
76865;SDS011;66647;52.124;5.416;2023-03-29T03:56:12;3.22;;;0.65;;
76865;SDS011;66647;52.124;5.416;2023-03-29T03:58:57;6.70;;;0.57;;
76865;SDS011;66647;52.124;5.416;2023-03-29T04:01:25;4.07;;;0.43;;
76865;SDS011;66647;52.124;5.416;2023-03-29T04:04:13;3.15;;;0.40;;
76865;SDS011;66647;52.124;5.416;2023-03-29T04:06:51;6.43;;;0.98;;
76865;SDS011;66647;52.124;5.416;2023-03-29T04:09:45;4.18;;;0.45;;
76865;SDS011;66647;52.124;5.416;2023-03-29T04:12:40;5.47;;;0.50;;
76865;SDS011;66647;52.124;5.416;2023-03-29T04:15:07;3.53;;;0.60;;
76865;SDS011;66647;52.124;5.416;2023-03-29T04:17:37;3.38;;;0.85;;
76865;SDS011;66647;52.124;5.416;2023-03-29T04:20:16;3.50;;;0.63;;
76865;SDS011;66647;52.124;5.416;2023-03-29T04:22:43;3.78;;;0.75;;
76865;SDS011;66647;52.124;5.416;2023-03-29T04:25:12;3.20;;;0.47;;
76865;SDS011;66647;52.124;5.416;2023-03-29T04:27:56;3.03;;;0.68;;
76865;SDS011;66647;52.124;5.416;2023-03-29T04:30:45;3.30;;;1.00;;
76865;SDS011;66647;52.124;5.416;2023-03-29T04:33:17;3.95;;;0.40;;
76865;SDS011;66647;52.124;5.416;2023-03-29T04:35:49;2.65;;;0.82;;
76865;SDS011;66647;52.124;5.416;2023-03-29T04:38:17;4.05;;;0.35;;
76865;SDS011;66647;52.124;5.416;2023-03-29T04:40:49;3.85;;;0.63;;
76865;SDS011;66647;52.124;5.416;2023-03-29T04:43:22;2.22;;;0.43;;
76865;SDS011;66647;52.124;5.416;2023-03-29T04:45:58;4.30;;;0.43;;
76865;SDS011;66647;52.124;5.416;2023-03-29T04:48:43;3.03;;;0.50;;
76865;SDS011;66647;52.124;5.416;2023-03-29T04:51:11;3.15;;;0.68;;
76865;SDS011;66647;52.124;5.416;2023-03-29T04:53:38;4.30;;;0.70;;
76865;SDS011;66647;52.124;5.416;2023-03-29T04:56:05;3.38;;;0.68;;
76865;SDS011;66647;52.124;5.416;2023-03-29T04:58:53;3.72;;;0.52;;
76865;SDS011;66647;52.124;5.416;2023-03-29T05:01:20;2.53;;;0.32;;
76865;SDS011;66647;52.124;5.416;2023-03-29T05:03:54;2.63;;;0.55;;
76865;SDS011;66647;52.124;5.416;2023-03-29T05:06:26;5.13;;;0.40;;
76865;SDS011;66647;52.124;5.416;2023-03-29T05:08:54;3.10;;;0.35;;
76865;SDS011;66647;52.124;5.416;2023-03-29T05:11:31;2.42;;;0.40;;
76865;SDS011;66647;52.124;5.416;2023-03-29T05:13:58;2.40;;;0.52;;
76865;SDS011;66647;52.124;5.416;2023-03-29T05:16:31;2.88;;;0.35;;
76865;SDS011;66647;52.124;5.416;2023-03-29T05:19:00;5.03;;;1.10;;
76865;SDS011;66647;52.124;5.416;2023-03-29T05:21:27;9.75;;;2.97;;
76865;SDS011;66647;52.124;5.416;2023-03-29T05:23:57;12.60;;;5.97;;
76865;SDS011;66647;52.124;5.416;2023-03-29T05:26:47;6.85;;;1.52;;
76865;SDS011;66647;52.124;5.416;2023-03-29T05:29:17;4.82;;;1.35;;
76865;SDS011;66647;52.124;5.416;2023-03-29T05:31:48;4.30;;;1.30;;
76865;SDS011;66647;52.124;5.416;2023-03-29T05:34:15;5.18;;;2.40;;
76865;SDS011;66647;52.124;5.416;2023-03-29T05:36:48;7.53;;;3.85;;
76865;SDS011;66647;52.124;5.416;2023-03-29T05:39:17;4.57;;;2.47;;
76865;SDS011;66647;52.124;5.416;2023-03-29T05:41:44;6.72;;;2.20;;
76865;SDS011;66647;52.124;5.416;2023-03-29T05:44:41;4.60;;;1.30;;
76865;SDS011;66647;52.124;5.416;2023-03-29T05:47:14;4.00;;;1.60;;
76865;SDS011;66647;52.124;5.416;2023-03-29T05:49:41;3.50;;;1.20;;
76865;SDS011;66647;52.124;5.416;2023-03-29T05:52:11;6.90;;;1.33;;
76865;SDS011;66647;52.124;5.416;2023-03-29T05:54:40;3.97;;;0.45;;
76865;SDS011;66647;52.124;5.416;2023-03-29T05:57:08;4.55;;;0.70;;
76865;SDS011;66647;52.124;5.416;2023-03-29T05:59:34;4.30;;;0.60;;
76865;SDS011;66647;52.124;5.416;2023-03-29T06:02:02;4.35;;;1.35;;
76865;SDS011;66647;52.124;5.416;2023-03-29T06:04:36;8.02;;;1.08;;
76865;SDS011;66647;52.124;5.416;2023-03-29T06:07:24;4.65;;;1.15;;
76865;SDS011;66647;52.124;5.416;2023-03-29T06:10:15;6.00;;;1.08;;
76865;SDS011;66647;52.124;5.416;2023-03-29T06:12:47;3.00;;;0.43;;
76865;SDS011;66647;52.124;5.416;2023-03-29T06:15:16;6.38;;;0.98;;
76865;SDS011;66647;52.124;5.416;2023-03-29T06:17:48;4.82;;;0.80;;
76865;SDS011;66647;52.124;5.416;2023-03-29T06:20:16;3.05;;;0.80;;
76865;SDS011;66647;52.124;5.416;2023-03-29T06:22:48;4.78;;;0.90;;
76865;SDS011;66647;52.124;5.416;2023-03-29T06:25:15;4.43;;;0.90;;
76865;SDS011;66647;52.124;5.416;2023-03-29T06:27:44;3.90;;;0.70;;
76865;SDS011;66647;52.124;5.416;2023-03-29T06:30:15;3.88;;;1.13;;
76865;SDS011;66647;52.124;5.416;2023-03-29T06:32:46;3.97;;;0.40;;
76865;SDS011;66647;52.124;5.416;2023-03-29T06:35:26;5.00;;;1.05;;
76865;SDS011;66647;52.124;5.416;2023-03-29T06:38:01;3.97;;;0.80;;
76865;SDS011;66647;52.124;5.416;2023-03-29T06:40:58;3.90;;;0.70;;
76865;SDS011;66647;52.124;5.416;2023-03-29T06:43:32;7.43;;;0.70;;
76865;SDS011;66647;52.124;5.416;2023-03-29T06:46:05;3.83;;;1.15;;
76865;SDS011;66647;52.124;5.416;2023-03-29T06:48:51;6.13;;;1.40;;
76865;SDS011;66647;52.124;5.416;2023-03-29T06:51:19;8.27;;;2.65;;
76865;SDS011;66647;52.124;5.416;2023-03-29T06:53:51;7.20;;;2.60;;
76865;SDS011;66647;52.124;5.416;2023-03-29T06:56:19;12.00;;;4.50;;
76865;SDS011;66647;52.124;5.416;2023-03-29T06:58:53;29.98;;;9.98;;
76865;SDS011;66647;52.124;5.416;2023-03-29T07:01:49;18.55;;;5.53;;
76865;SDS011;66647;52.124;5.416;2023-03-29T07:04:24;4.75;;;1.70;;
76865;SDS011;66647;52.124;5.416;2023-03-29T07:07:09;4.95;;;1.13;;
76865;SDS011;66647;52.124;5.416;2023-03-29T07:09:50;3.80;;;0.98;;
76865;SDS011;66647;52.124;5.416;2023-03-29T07:12:39;7.30;;;1.45;;
76865;SDS011;66647;52.124;5.416;2023-03-29T07:15:06;3.67;;;1.23;;
76865;SDS011;66647;52.124;5.416;2023-03-29T07:17:53;6.22;;;1.38;;
76865;SDS011;66647;52.124;5.416;2023-03-29T07:20:24;4.88;;;0.93;;
76865;SDS011;66647;52.124;5.416;2023-03-29T07:23:02;6.03;;;1.85;;
76865;SDS011;66647;52.124;5.416;2023-03-29T07:25:30;6.35;;;1.50;;
76865;SDS011;66647;52.124;5.416;2023-03-29T07:27:57;4.93;;;1.00;;
76865;SDS011;66647;52.124;5.416;2023-03-29T07:30:26;5.82;;;1.23;;
76865;SDS011;66647;52.124;5.416;2023-03-29T07:33:09;4.95;;;1.27;;
76865;SDS011;66647;52.124;5.416;2023-03-29T07:35:41;4.88;;;1.20;;
76865;SDS011;66647;52.124;5.416;2023-03-29T07:38:09;5.78;;;1.70;;
76865;SDS011;66647;52.124;5.416;2023-03-29T07:40:40;6.68;;;1.65;;
76865;SDS011;66647;52.124;5.416;2023-03-29T07:43:25;5.90;;;1.45;;
76865;SDS011;66647;52.124;5.416;2023-03-29T07:45:52;6.10;;;1.50;;
76865;SDS011;66647;52.124;5.416;2023-03-29T07:48:19;4.85;;;1.67;;
76865;SDS011;66647;52.124;5.416;2023-03-29T07:50:54;10.77;;;1.98;;
76865;SDS011;66647;52.124;5.416;2023-03-29T07:53:26;6.53;;;1.67;;
76865;SDS011;66647;52.124;5.416;2023-03-29T07:55:56;5.30;;;1.30;;
76865;SDS011;66647;52.124;5.416;2023-03-29T07:58:42;5.10;;;1.42;;
76865;SDS011;66647;52.124;5.416;2023-03-29T08:01:10;4.97;;;1.20;;
76865;SDS011;66647;52.124;5.416;2023-03-29T08:04:02;7.95;;;1.63;;
76865;SDS011;66647;52.124;5.416;2023-03-29T08:06:48;6.25;;;1.30;;
76865;SDS011;66647;52.124;5.416;2023-03-29T08:09:16;10.77;;;2.90;;
76865;SDS011;66647;52.124;5.416;2023-03-29T08:11:43;78.20;;;25.60;;
76865;SDS011;66647;52.124;5.416;2023-03-29T08:14:22;22.63;;;7.20;;
76865;SDS011;66647;52.124;5.416;2023-03-29T08:17:00;41.28;;;14.50;;
76865;SDS011;66647;52.124;5.416;2023-03-29T08:19:29;98.78;;;31.15;;
76865;SDS011;66647;52.124;5.416;2023-03-29T08:22:02;31.25;;;11.25;;
76865;SDS011;66647;52.124;5.416;2023-03-29T08:25:05;12.75;;;3.22;;
76865;SDS011;66647;52.124;5.416;2023-03-29T08:27:38;9.05;;;3.03;;
76865;SDS011;66647;52.124;5.416;2023-03-29T08:30:07;7.53;;;2.15;;
76865;SDS011;66647;52.124;5.416;2023-03-29T08:32:39;8.60;;;1.70;;
76865;SDS011;66647;52.124;5.416;2023-03-29T08:35:08;10.35;;;2.72;;
76865;SDS011;66647;52.124;5.416;2023-03-29T08:37:41;6.70;;;2.05;;
76865;SDS011;66647;52.124;5.416;2023-03-29T08:40:18;10.18;;;1.88;;
76865;SDS011;66647;52.124;5.416;2023-03-29T08:43:20;9.20;;;2.22;;
76865;SDS011;66647;52.124;5.416;2023-03-29T08:49:24;7.53;;;2.33;;
76865;SDS011;66647;52.124;5.416;2023-03-29T08:51:51;9.30;;;2.45;;
76865;SDS011;66647;52.124;5.416;2023-03-29T08:54:24;6.05;;;2.17;;
76865;SDS011;66647;52.124;5.416;2023-03-29T08:57:24;8.52;;;2.58;;
76865;SDS011;66647;52.124;5.416;2023-03-29T09:00:03;8.70;;;2.75;;
76865;SDS011;66647;52.124;5.416;2023-03-29T09:02:35;6.55;;;2.25;;
76865;SDS011;66647;52.124;5.416;2023-03-29T09:05:53;7.25;;;2.00;;
76865;SDS011;66647;52.124;5.416;2023-03-29T09:08:12;8.32;;;3.05;;
76865;SDS011;66647;52.124;5.416;2023-03-29T09:10:44;8.63;;;3.15;;
76865;SDS011;66647;52.124;5.416;2023-03-29T09:16:17;9.25;;;2.88;;
76865;SDS011;66647;52.124;5.416;2023-03-29T09:22:05;7.72;;;2.35;;
76865;SDS011;66647;52.124;5.416;2023-03-29T09:27:34;9.55;;;2.70;;
76865;SDS011;66647;52.124;5.416;2023-03-29T09:30:35;10.27;;;2.85;;
76865;SDS011;66647;52.124;5.416;2023-03-29T09:33:17;6.40;;;2.33;;
76865;SDS011;66647;52.124;5.416;2023-03-29T09:36:04;6.40;;;3.05;;
76865;SDS011;66647;52.124;5.416;2023-03-29T09:38:39;9.70;;;2.70;;
76865;SDS011;66647;52.124;5.416;2023-03-29T09:44:39;10.93;;;3.05;;
76865;SDS011;66647;52.124;5.416;2023-03-29T09:47:21;10.18;;;2.53;;
76865;SDS011;66647;52.124;5.416;2023-03-29T09:50:02;8.32;;;2.90;;
76865;SDS011;66647;52.124;5.416;2023-03-29T09:52:52;8.52;;;2.65;;
76865;SDS011;66647;52.124;5.416;2023-03-29T09:55:24;7.38;;;2.70;;
76865;SDS011;66647;52.124;5.416;2023-03-29T09:58:01;7.85;;;2.80;;
76865;SDS011;66647;52.124;5.416;2023-03-29T10:01:00;8.88;;;2.88;;
76865;SDS011;66647;52.124;5.416;2023-03-29T10:03:30;7.88;;;3.15;;
76865;SDS011;66647;52.124;5.416;2023-03-29T10:06:10;7.43;;;3.10;;
76865;SDS011;66647;52.124;5.416;2023-03-29T10:08:43;7.70;;;3.15;;
76865;SDS011;66647;52.124;5.416;2023-03-29T10:11:44;7.82;;;2.75;;
76865;SDS011;66647;52.124;5.416;2023-03-29T10:14:11;8.68;;;3.22;;
76865;SDS011;66647;52.124;5.416;2023-03-29T10:16:44;8.10;;;3.55;;
76865;SDS011;66647;52.124;5.416;2023-03-29T10:19:19;8.45;;;3.17;;
76865;SDS011;66647;52.124;5.416;2023-03-29T10:21:51;11.70;;;3.63;;
76865;SDS011;66647;52.124;5.416;2023-03-29T10:24:22;9.80;;;3.38;;
76865;SDS011;66647;52.124;5.416;2023-03-29T10:26:57;8.60;;;3.85;;
76865;SDS011;66647;52.124;5.416;2023-03-29T10:34:42;9.07;;;3.63;;
76865;SDS011;66647;52.124;5.416;2023-03-29T10:39:41;11.18;;;4.45;;
76865;SDS011;66647;52.124;5.416;2023-03-29T10:42:09;9.43;;;3.78;;
76865;SDS011;66647;52.124;5.416;2023-03-29T10:44:40;14.77;;;4.18;;
76865;SDS011;66647;52.124;5.416;2023-03-29T10:49:42;11.35;;;4.82;;
76865;SDS011;66647;52.124;5.416;2023-03-29T10:52:13;14.80;;;4.47;;
76865;SDS011;66647;52.124;5.416;2023-03-29T10:54:45;11.15;;;4.15;;
76865;SDS011;66647;52.124;5.416;2023-03-29T10:57:13;10.95;;;4.43;;
76865;SDS011;66647;52.124;5.416;2023-03-29T11:06:39;10.27;;;4.57;;
76865;SDS011;66647;52.124;5.416;2023-03-29T11:09:36;10.02;;;4.57;;
76865;SDS011;66647;52.124;5.416;2023-03-29T11:12:14;10.93;;;4.10;;
76865;SDS011;66647;52.124;5.416;2023-03-29T11:18:07;10.45;;;4.28;;
76865;SDS011;66647;52.124;5.416;2023-03-29T11:32:24;11.38;;;4.78;;
76865;SDS011;66647;52.124;5.416;2023-03-29T11:35:00;8.45;;;4.43;;
76865;SDS011;66647;52.124;5.416;2023-03-29T11:37:34;10.88;;;4.47;;
76865;SDS011;66647;52.124;5.416;2023-03-29T11:40:40;13.95;;;4.68;;
76865;SDS011;66647;52.124;5.416;2023-03-29T11:43:21;10.18;;;4.55;;
76865;SDS011;66647;52.124;5.416;2023-03-29T11:45:58;10.25;;;4.40;;
76865;SDS011;66647;52.124;5.416;2023-03-29T11:48:30;11.32;;;4.78;;
76865;SDS011;66647;52.124;5.416;2023-03-29T11:51:04;8.73;;;4.22;;
76865;SDS011;66647;52.124;5.416;2023-03-29T11:53:51;7.65;;;3.78;;
76865;SDS011;66647;52.124;5.416;2023-03-29T11:56:39;12.93;;;4.50;;
76865;SDS011;66647;52.124;5.416;2023-03-29T11:59:14;8.43;;;3.58;;
76865;SDS011;66647;52.124;5.416;2023-03-29T12:01:54;9.60;;;3.83;;
76865;SDS011;66647;52.124;5.416;2023-03-29T12:04:36;13.48;;;4.63;;
76865;SDS011;66647;52.124;5.416;2023-03-29T12:09:52;13.75;;;5.38;;
76865;SDS011;66647;52.124;5.416;2023-03-29T12:12:26;13.13;;;6.57;;
76865;SDS011;66647;52.124;5.416;2023-03-29T12:15:19;10.93;;;6.00;;
76865;SDS011;66647;52.124;5.416;2023-03-29T12:22:49;12.15;;;5.53;;
76865;SDS011;66647;52.124;5.416;2023-03-29T12:25:19;12.45;;;6.03;;
76865;SDS011;66647;52.124;5.416;2023-03-29T12:33:42;11.35;;;6.10;;
76865;SDS011;66647;52.124;5.416;2023-03-29T12:39:45;12.63;;;6.50;;
76865;SDS011;66647;52.124;5.416;2023-03-29T12:42:47;14.43;;;6.47;;
76865;SDS011;66647;52.124;5.416;2023-03-29T12:45:42;13.43;;;6.53;;
76865;SDS011;66647;52.124;5.416;2023-03-29T12:48:14;13.23;;;5.88;;
76865;SDS011;66647;52.124;5.416;2023-03-29T12:50:51;13.05;;;6.15;;
76865;SDS011;66647;52.124;5.416;2023-03-29T12:53:32;12.63;;;6.60;;
76865;SDS011;66647;52.124;5.416;2023-03-29T13:03:48;14.02;;;6.43;;
76865;SDS011;66647;52.124;5.416;2023-03-29T13:06:26;16.75;;;7.10;;
76865;SDS011;66647;52.124;5.416;2023-03-29T13:09:00;15.73;;;6.88;;
76865;SDS011;66647;52.124;5.416;2023-03-29T13:11:33;14.85;;;6.88;;
76865;SDS011;66647;52.124;5.416;2023-03-29T13:14:12;13.60;;;7.47;;
76865;SDS011;66647;52.124;5.416;2023-03-29T13:16:43;15.68;;;7.68;;
76865;SDS011;66647;52.124;5.416;2023-03-29T13:19:13;16.17;;;7.05;;
76865;SDS011;66647;52.124;5.416;2023-03-29T13:21:55;13.27;;;7.55;;
76865;SDS011;66647;52.124;5.416;2023-03-29T13:27:28;14.35;;;7.47;;
76865;SDS011;66647;52.124;5.416;2023-03-29T13:38:45;11.80;;;5.68;;
76865;SDS011;66647;52.124;5.416;2023-03-29T13:46:47;11.07;;;5.10;;
76865;SDS011;66647;52.124;5.416;2023-03-29T13:49:18;12.75;;;6.35;;
76865;SDS011;66647;52.124;5.416;2023-03-29T13:55:23;13.88;;;7.28;;
76865;SDS011;66647;52.124;5.416;2023-03-29T13:57:58;15.80;;;7.53;;
76865;SDS011;66647;52.124;5.416;2023-03-29T14:00:34;14.07;;;7.00;;
76865;SDS011;66647;52.124;5.416;2023-03-29T14:03:09;12.30;;;6.40;;
76865;SDS011;66647;52.124;5.416;2023-03-29T14:05:40;13.25;;;7.25;;
76865;SDS011;66647;52.124;5.416;2023-03-29T14:08:18;11.77;;;6.80;;
76865;SDS011;66647;52.124;5.416;2023-03-29T14:10:59;11.00;;;6.03;;
76865;SDS011;66647;52.124;5.416;2023-03-29T14:13:27;13.70;;;6.57;;
76865;SDS011;66647;52.124;5.416;2023-03-29T14:15:58;10.75;;;6.50;;
76865;SDS011;66647;52.124;5.416;2023-03-29T14:18:41;10.95;;;6.55;;
76865;SDS011;66647;52.124;5.416;2023-03-29T14:21:10;12.15;;;6.63;;
76865;SDS011;66647;52.124;5.416;2023-03-29T14:23:53;12.80;;;6.25;;
76865;SDS011;66647;52.124;5.416;2023-03-29T14:26:32;10.60;;;6.00;;
76865;SDS011;66647;52.124;5.416;2023-03-29T14:29:00;9.88;;;5.85;;
76865;SDS011;66647;52.124;5.416;2023-03-29T14:31:32;11.10;;;5.88;;
76865;SDS011;66647;52.124;5.416;2023-03-29T14:34:01;9.68;;;5.10;;
76865;SDS011;66647;52.124;5.416;2023-03-29T14:36:31;10.63;;;6.20;;
76865;SDS011;66647;52.124;5.416;2023-03-29T14:39:03;10.00;;;5.63;;
76865;SDS011;66647;52.124;5.416;2023-03-29T14:41:34;11.57;;;5.65;;
76865;SDS011;66647;52.124;5.416;2023-03-29T14:44:03;9.77;;;5.35;;
76865;SDS011;66647;52.124;5.416;2023-03-29T14:46:32;11.52;;;5.25;;
76865;SDS011;66647;52.124;5.416;2023-03-29T14:49:06;10.77;;;5.35;;
76865;SDS011;66647;52.124;5.416;2023-03-29T14:54:31;11.13;;;5.28;;
76865;SDS011;66647;52.124;5.416;2023-03-29T14:57:35;9.43;;;5.32;;
76865;SDS011;66647;52.124;5.416;2023-03-29T15:03:50;7.75;;;4.60;;
76865;SDS011;66647;52.124;5.416;2023-03-29T15:06:39;8.02;;;4.80;;
76865;SDS011;66647;52.124;5.416;2023-03-29T15:09:18;10.75;;;4.30;;
76865;SDS011;66647;52.124;5.416;2023-03-29T15:11:50;10.75;;;4.53;;
76865;SDS011;66647;52.124;5.416;2023-03-29T15:14:19;9.70;;;4.55;;
76865;SDS011;66647;52.124;5.416;2023-03-29T15:16:48;9.77;;;4.25;;
76865;SDS011;66647;52.124;5.416;2023-03-29T15:19:20;9.48;;;3.88;;
76865;SDS011;66647;52.124;5.416;2023-03-29T15:21:51;9.93;;;3.90;;
76865;SDS011;66647;52.124;5.416;2023-03-29T15:24:31;9.43;;;4.40;;
76865;SDS011;66647;52.124;5.416;2023-03-29T15:27:01;8.88;;;4.03;;
76865;SDS011;66647;52.124;5.416;2023-03-29T15:29:33;8.00;;;4.05;;
76865;SDS011;66647;52.124;5.416;2023-03-29T15:32:02;9.73;;;4.50;;
76865;SDS011;66647;52.124;5.416;2023-03-29T15:34:29;6.13;;;3.08;;
76865;SDS011;66647;52.124;5.416;2023-03-29T15:36:58;7.88;;;3.55;;
76865;SDS011;66647;52.124;5.416;2023-03-29T15:39:26;7.80;;;3.55;;
76865;SDS011;66647;52.124;5.416;2023-03-29T15:41:55;7.22;;;2.67;;
76865;SDS011;66647;52.124;5.416;2023-03-29T15:44:25;5.97;;;2.97;;
76865;SDS011;66647;52.124;5.416;2023-03-29T15:46:54;6.38;;;2.70;;
76865;SDS011;66647;52.124;5.416;2023-03-29T15:49:23;6.45;;;2.78;;
76865;SDS011;66647;52.124;5.416;2023-03-29T15:51:52;7.25;;;2.13;;
76865;SDS011;66647;52.124;5.416;2023-03-29T15:54:19;6.30;;;2.72;;
76865;SDS011;66647;52.124;5.416;2023-03-29T15:56:48;4.85;;;2.20;;
76865;SDS011;66647;52.124;5.416;2023-03-29T15:59:21;8.80;;;2.33;;
76865;SDS011;66647;52.124;5.416;2023-03-29T16:01:57;21.67;;;12.60;;
76865;SDS011;66647;52.124;5.416;2023-03-29T16:04:34;38.78;;;19.63;;
76865;SDS011;66647;52.124;5.416;2023-03-29T16:07:15;11.95;;;7.10;;
76865;SDS011;66647;52.124;5.416;2023-03-29T16:09:43;6.85;;;3.10;;
76865;SDS011;66647;52.124;5.416;2023-03-29T16:12:11;9.48;;;2.60;;
76865;SDS011;66647;52.124;5.416;2023-03-29T16:17:08;5.53;;;1.98;;
76865;SDS011;66647;52.124;5.416;2023-03-29T16:19:35;8.88;;;5.05;;
76865;SDS011;66647;52.124;5.416;2023-03-29T16:22:02;7.78;;;3.33;;
76865;SDS011;66647;52.124;5.416;2023-03-29T16:24:32;8.07;;;3.58;;
76865;SDS011;66647;52.124;5.416;2023-03-29T16:27:00;6.88;;;2.63;;
76865;SDS011;66647;52.124;5.416;2023-03-29T16:29:28;5.40;;;2.28;;
76865;SDS011;66647;52.124;5.416;2023-03-29T16:31:58;6.28;;;2.25;;
76865;SDS011;66647;52.124;5.416;2023-03-29T16:34:31;4.88;;;2.00;;
76865;SDS011;66647;52.124;5.416;2023-03-29T16:39:51;6.25;;;1.77;;
76865;SDS011;66647;52.124;5.416;2023-03-29T16:42:20;3.28;;;1.15;;
76865;SDS011;66647;52.124;5.416;2023-03-29T16:44:48;5.80;;;1.98;;
76865;SDS011;66647;52.124;5.416;2023-03-29T16:47:14;5.50;;;1.83;;
76865;SDS011;66647;52.124;5.416;2023-03-29T16:49:43;7.25;;;1.80;;
76865;SDS011;66647;52.124;5.416;2023-03-29T16:54:40;7.13;;;3.00;;
76865;SDS011;66647;52.124;5.416;2023-03-29T16:57:07;7.38;;;2.70;;
76865;SDS011;66647;52.124;5.416;2023-03-29T16:59:35;6.03;;;1.70;;
76865;SDS011;66647;52.124;5.416;2023-03-29T17:02:02;6.15;;;2.22;;
76865;SDS011;66647;52.124;5.416;2023-03-29T17:04:28;5.10;;;1.42;;
76865;SDS011;66647;52.124;5.416;2023-03-29T17:06:55;5.53;;;2.20;;
76865;SDS011;66647;52.124;5.416;2023-03-29T17:09:22;9.02;;;4.00;;
76865;SDS011;66647;52.124;5.416;2023-03-29T17:11:48;7.30;;;2.88;;
76865;SDS011;66647;52.124;5.416;2023-03-29T17:14:16;6.28;;;2.05;;
76865;SDS011;66647;52.124;5.416;2023-03-29T17:16:43;27.48;;;11.23;;
76865;SDS011;66647;52.124;5.416;2023-03-29T17:19:10;14.77;;;5.35;;
76865;SDS011;66647;52.124;5.416;2023-03-29T17:21:36;9.30;;;3.55;;
76865;SDS011;66647;52.124;5.416;2023-03-29T17:24:03;9.43;;;2.88;;
76865;SDS011;66647;52.124;5.416;2023-03-29T17:26:32;6.13;;;2.08;;
76865;SDS011;66647;52.124;5.416;2023-03-29T17:29:03;7.57;;;2.90;;
76865;SDS011;66647;52.124;5.416;2023-03-29T17:31:31;4.63;;;2.05;;